sensor_id;sensor_type;location;lat;lon;timestamp;P1;durP1;ratioP1;P2;durP2;ratioP2
18142;SDS011;9197;50.930;3.140;2022-11-15T00:01:29;41.57;;;32.67;;
18142;SDS011;9197;50.930;3.140;2022-11-15T00:03:56;47.80;;;32.23;;
18142;SDS011;9197;50.930;3.140;2022-11-15T00:06:24;40.93;;;30.33;;
18142;SDS011;9197;50.930;3.140;2022-11-15T00:08:51;39.53;;;29.13;;
18142;SDS011;9197;50.930;3.140;2022-11-15T00:11:20;40.10;;;29.63;;
18142;SDS011;9197;50.930;3.140;2022-11-15T00:13:48;43.70;;;29.43;;
18142;SDS011;9197;50.930;3.140;2022-11-15T00:16:17;42.30;;;29.80;;
18142;SDS011;9197;50.930;3.140;2022-11-15T00:18:45;41.93;;;29.33;;
18142;SDS011;9197;50.930;3.140;2022-11-15T00:21:19;34.00;;;26.67;;
18142;SDS011;9197;50.930;3.140;2022-11-15T00:23:46;42.77;;;28.90;;
18142;SDS011;9197;50.930;3.140;2022-11-15T00:26:14;41.17;;;27.27;;
18142;SDS011;9197;50.930;3.140;2022-11-15T00:28:44;36.90;;;26.27;;
18142;SDS011;9197;50.930;3.140;2022-11-15T00:31:12;33.63;;;25.00;;
18142;SDS011;9197;50.930;3.140;2022-11-15T00:33:42;33.80;;;24.43;;
18142;SDS011;9197;50.930;3.140;2022-11-15T00:36:11;29.77;;;22.60;;
18142;SDS011;9197;50.930;3.140;2022-11-15T00:38:39;33.00;;;22.93;;
18142;SDS011;9197;50.930;3.140;2022-11-15T00:41:07;49.60;;;25.63;;
18142;SDS011;9197;50.930;3.140;2022-11-15T00:43:35;32.63;;;22.13;;
18142;SDS011;9197;50.930;3.140;2022-11-15T00:46:06;30.10;;;23.27;;
18142;SDS011;9197;50.930;3.140;2022-11-15T00:48:34;25.57;;;21.07;;
18142;SDS011;9197;50.930;3.140;2022-11-15T00:51:02;31.47;;;21.80;;
18142;SDS011;9197;50.930;3.140;2022-11-15T00:53:29;31.70;;;21.37;;
18142;SDS011;9197;50.930;3.140;2022-11-15T00:56:05;33.57;;;21.27;;
18142;SDS011;9197;50.930;3.140;2022-11-15T00:58:33;30.20;;;20.00;;
18142;SDS011;9197;50.930;3.140;2022-11-15T01:01:12;29.10;;;21.30;;
18142;SDS011;9197;50.930;3.140;2022-11-15T01:03:41;34.93;;;19.40;;
18142;SDS011;9197;50.930;3.140;2022-11-15T01:06:08;33.43;;;20.83;;
18142;SDS011;9197;50.930;3.140;2022-11-15T01:08:37;26.07;;;18.33;;
18142;SDS011;9197;50.930;3.140;2022-11-15T01:11:09;26.90;;;18.50;;
18142;SDS011;9197;50.930;3.140;2022-11-15T01:13:45;29.97;;;18.53;;
18142;SDS011;9197;50.930;3.140;2022-11-15T01:16:15;28.00;;;18.27;;
18142;SDS011;9197;50.930;3.140;2022-11-15T01:18:44;24.67;;;18.80;;
18142;SDS011;9197;50.930;3.140;2022-11-15T01:21:12;22.57;;;17.07;;
18142;SDS011;9197;50.930;3.140;2022-11-15T01:23:39;29.03;;;17.67;;
18142;SDS011;9197;50.930;3.140;2022-11-15T01:26:09;24.83;;;15.20;;
18142;SDS011;9197;50.930;3.140;2022-11-15T01:28:39;23.27;;;15.10;;
18142;SDS011;9197;50.930;3.140;2022-11-15T01:31:07;22.83;;;16.80;;
18142;SDS011;9197;50.930;3.140;2022-11-15T01:33:37;21.33;;;15.83;;
18142;SDS011;9197;50.930;3.140;2022-11-15T01:36:13;20.87;;;14.47;;
18142;SDS011;9197;50.930;3.140;2022-11-15T01:38:44;22.20;;;13.93;;
18142;SDS011;9197;50.930;3.140;2022-11-15T01:41:18;22.70;;;13.37;;
18142;SDS011;9197;50.930;3.140;2022-11-15T01:44:25;18.57;;;14.77;;
18142;SDS011;9197;50.930;3.140;2022-11-15T01:46:59;32.47;;;13.83;;
18142;SDS011;9197;50.930;3.140;2022-11-15T01:49:29;28.03;;;13.93;;
18142;SDS011;9197;50.930;3.140;2022-11-15T01:52:03;25.60;;;14.20;;
18142;SDS011;9197;50.930;3.140;2022-11-15T01:54:34;17.87;;;13.17;;
18142;SDS011;9197;50.930;3.140;2022-11-15T01:57:03;21.70;;;14.17;;
18142;SDS011;9197;50.930;3.140;2022-11-15T01:59:31;19.63;;;13.67;;
18142;SDS011;9197;50.930;3.140;2022-11-15T02:02:00;16.33;;;12.20;;
18142;SDS011;9197;50.930;3.140;2022-11-15T02:04:30;19.83;;;12.90;;
18142;SDS011;9197;50.930;3.140;2022-11-15T02:07:01;21.70;;;11.47;;
18142;SDS011;9197;50.930;3.140;2022-11-15T02:09:29;22.83;;;10.97;;
18142;SDS011;9197;50.930;3.140;2022-11-15T02:11:56;16.77;;;10.67;;
18142;SDS011;9197;50.930;3.140;2022-11-15T02:14:24;14.57;;;10.00;;
18142;SDS011;9197;50.930;3.140;2022-11-15T02:17:02;18.00;;;9.60;;
18142;SDS011;9197;50.930;3.140;2022-11-15T02:19:46;15.83;;;9.30;;
18142;SDS011;9197;50.930;3.140;2022-11-15T02:22:23;12.07;;;8.80;;
18142;SDS011;9197;50.930;3.140;2022-11-15T02:25:03;15.33;;;8.30;;
18142;SDS011;9197;50.930;3.140;2022-11-15T02:30:40;15.00;;;8.47;;
18142;SDS011;9197;50.930;3.140;2022-11-15T02:33:12;13.33;;;7.83;;
18142;SDS011;9197;50.930;3.140;2022-11-15T02:35:44;9.27;;;7.77;;
18142;SDS011;9197;50.930;3.140;2022-11-15T02:38:25;13.50;;;6.67;;
18142;SDS011;9197;50.930;3.140;2022-11-15T02:40:56;9.90;;;6.70;;
18142;SDS011;9197;50.930;3.140;2022-11-15T02:43:28;14.27;;;5.13;;
18142;SDS011;9197;50.930;3.140;2022-11-15T02:46:28;12.43;;;5.23;;
18142;SDS011;9197;50.930;3.140;2022-11-15T02:49:16;7.10;;;4.63;;
18142;SDS011;9197;50.930;3.140;2022-11-15T02:51:45;11.23;;;4.00;;
18142;SDS011;9197;50.930;3.140;2022-11-15T02:54:26;9.40;;;4.20;;
18142;SDS011;9197;50.930;3.140;2022-11-15T02:56:56;7.97;;;4.47;;
18142;SDS011;9197;50.930;3.140;2022-11-15T03:02:25;12.20;;;4.30;;
18142;SDS011;9197;50.930;3.140;2022-11-15T03:04:57;6.80;;;4.17;;
18142;SDS011;9197;50.930;3.140;2022-11-15T03:07:34;11.20;;;3.93;;
18142;SDS011;9197;50.930;3.140;2022-11-15T03:10:12;12.33;;;5.93;;
18142;SDS011;9197;50.930;3.140;2022-11-15T03:13:03;7.73;;;4.60;;
18142;SDS011;9197;50.930;3.140;2022-11-15T03:15:36;13.23;;;5.23;;
18142;SDS011;9197;50.930;3.140;2022-11-15T03:18:12;10.57;;;5.30;;
18142;SDS011;9197;50.930;3.140;2022-11-15T03:20:45;11.40;;;5.27;;
18142;SDS011;9197;50.930;3.140;2022-11-15T03:23:18;9.13;;;5.40;;
18142;SDS011;9197;50.930;3.140;2022-11-15T03:25:56;10.47;;;4.87;;
18142;SDS011;9197;50.930;3.140;2022-11-15T03:28:42;11.67;;;6.27;;
18142;SDS011;9197;50.930;3.140;2022-11-15T03:31:25;9.50;;;6.23;;
18142;SDS011;9197;50.930;3.140;2022-11-15T03:34:15;14.17;;;6.10;;
18142;SDS011;9197;50.930;3.140;2022-11-15T03:36:48;11.37;;;7.13;;
18142;SDS011;9197;50.930;3.140;2022-11-15T03:39:17;10.07;;;6.37;;
18142;SDS011;9197;50.930;3.140;2022-11-15T03:41:49;13.70;;;7.53;;
18142;SDS011;9197;50.930;3.140;2022-11-15T03:44:30;13.27;;;8.27;;
18142;SDS011;9197;50.930;3.140;2022-11-15T03:47:06;13.70;;;7.53;;
18142;SDS011;9197;50.930;3.140;2022-11-15T03:52:39;9.23;;;7.13;;
18142;SDS011;9197;50.930;3.140;2022-11-15T03:55:21;10.50;;;7.10;;
18142;SDS011;9197;50.930;3.140;2022-11-15T03:57:50;10.37;;;7.50;;
18142;SDS011;9197;50.930;3.140;2022-11-15T04:00:23;13.60;;;7.33;;
18142;SDS011;9197;50.930;3.140;2022-11-15T04:02:54;10.80;;;7.33;;
18142;SDS011;9197;50.930;3.140;2022-11-15T04:05:27;12.60;;;7.30;;
18142;SDS011;9197;50.930;3.140;2022-11-15T04:08:04;8.30;;;6.50;;
18142;SDS011;9197;50.930;3.140;2022-11-15T04:10:33;12.07;;;7.27;;
18142;SDS011;9197;50.930;3.140;2022-11-15T04:13:02;13.97;;;6.93;;
18142;SDS011;9197;50.930;3.140;2022-11-15T04:15:30;11.33;;;6.77;;
18142;SDS011;9197;50.930;3.140;2022-11-15T04:17:57;9.00;;;6.97;;
18142;SDS011;9197;50.930;3.140;2022-11-15T04:20:28;11.87;;;7.03;;
18142;SDS011;9197;50.930;3.140;2022-11-15T04:23:15;11.70;;;7.57;;
18142;SDS011;9197;50.930;3.140;2022-11-15T04:26:02;9.10;;;6.47;;
18142;SDS011;9197;50.930;3.140;2022-11-15T04:28:33;13.77;;;7.13;;
18142;SDS011;9197;50.930;3.140;2022-11-15T04:31:01;12.40;;;7.37;;
18142;SDS011;9197;50.930;3.140;2022-11-15T04:33:36;9.93;;;5.90;;
18142;SDS011;9197;50.930;3.140;2022-11-15T04:36:13;14.37;;;7.60;;
18142;SDS011;9197;50.930;3.140;2022-11-15T04:39:01;9.07;;;7.00;;
18142;SDS011;9197;50.930;3.140;2022-11-15T04:41:51;9.17;;;6.90;;
18142;SDS011;9197;50.930;3.140;2022-11-15T04:44:18;10.90;;;6.63;;
18142;SDS011;9197;50.930;3.140;2022-11-15T04:46:46;11.93;;;7.97;;
18142;SDS011;9197;50.930;3.140;2022-11-15T04:49:16;8.93;;;7.80;;
18142;SDS011;9197;50.930;3.140;2022-11-15T04:51:43;14.23;;;7.53;;
18142;SDS011;9197;50.930;3.140;2022-11-15T04:54:16;12.93;;;9.00;;
18142;SDS011;9197;50.930;3.140;2022-11-15T04:56:44;18.10;;;13.03;;
18142;SDS011;9197;50.930;3.140;2022-11-15T04:59:20;13.77;;;12.27;;
18142;SDS011;9197;50.930;3.140;2022-11-15T05:01:50;19.40;;;14.17;;
18142;SDS011;9197;50.930;3.140;2022-11-15T05:04:20;18.17;;;12.10;;
18142;SDS011;9197;50.930;3.140;2022-11-15T05:06:47;19.77;;;12.07;;
18142;SDS011;9197;50.930;3.140;2022-11-15T05:09:20;18.23;;;13.80;;
18142;SDS011;9197;50.930;3.140;2022-11-15T05:11:50;21.13;;;15.63;;
18142;SDS011;9197;50.930;3.140;2022-11-15T05:14:20;19.07;;;17.10;;
18142;SDS011;9197;50.930;3.140;2022-11-15T05:16:49;18.67;;;16.20;;
18142;SDS011;9197;50.930;3.140;2022-11-15T05:19:18;22.50;;;16.63;;
18142;SDS011;9197;50.930;3.140;2022-11-15T05:21:45;20.17;;;13.80;;
18142;SDS011;9197;50.930;3.140;2022-11-15T05:24:41;15.17;;;13.20;;
18142;SDS011;9197;50.930;3.140;2022-11-15T05:27:10;13.13;;;11.83;;
18142;SDS011;9197;50.930;3.140;2022-11-15T05:29:38;14.27;;;12.03;;
18142;SDS011;9197;50.930;3.140;2022-11-15T05:32:08;19.53;;;13.80;;
18142;SDS011;9197;50.930;3.140;2022-11-15T05:34:38;15.30;;;13.30;;
18142;SDS011;9197;50.930;3.140;2022-11-15T05:37:10;17.30;;;15.20;;
18142;SDS011;9197;50.930;3.140;2022-11-15T05:39:45;16.47;;;14.77;;
18142;SDS011;9197;50.930;3.140;2022-11-15T05:42:22;15.03;;;12.77;;
18142;SDS011;9197;50.930;3.140;2022-11-15T05:47:58;15.37;;;13.33;;
18142;SDS011;9197;50.930;3.140;2022-11-15T05:50:57;16.20;;;14.50;;
18142;SDS011;9197;50.930;3.140;2022-11-15T05:53:27;15.50;;;14.00;;
18142;SDS011;9197;50.930;3.140;2022-11-15T05:56:10;16.27;;;12.10;;
18142;SDS011;9197;50.930;3.140;2022-11-15T05:58:46;13.33;;;11.83;;
18142;SDS011;9197;50.930;3.140;2022-11-15T06:01:14;19.33;;;12.33;;
18142;SDS011;9197;50.930;3.140;2022-11-15T06:04:02;16.43;;;13.80;;
18142;SDS011;9197;50.930;3.140;2022-11-15T06:06:30;17.00;;;15.10;;
18142;SDS011;9197;50.930;3.140;2022-11-15T06:08:59;17.87;;;14.93;;
18142;SDS011;9197;50.930;3.140;2022-11-15T06:11:30;23.70;;;20.33;;
18142;SDS011;9197;50.930;3.140;2022-11-15T06:13:58;24.10;;;21.13;;
18142;SDS011;9197;50.930;3.140;2022-11-15T06:16:25;22.97;;;17.30;;
18142;SDS011;9197;50.930;3.140;2022-11-15T06:18:53;18.77;;;14.97;;
18142;SDS011;9197;50.930;3.140;2022-11-15T06:21:31;17.13;;;13.83;;
18142;SDS011;9197;50.930;3.140;2022-11-15T06:24:00;15.27;;;11.40;;
18142;SDS011;9197;50.930;3.140;2022-11-15T06:26:37;12.30;;;8.80;;
18142;SDS011;9197;50.930;3.140;2022-11-15T06:29:14;11.47;;;8.83;;
18142;SDS011;9197;50.930;3.140;2022-11-15T06:31:41;11.53;;;9.73;;
18142;SDS011;9197;50.930;3.140;2022-11-15T06:34:10;11.80;;;8.73;;
18142;SDS011;9197;50.930;3.140;2022-11-15T06:36:37;11.00;;;7.87;;
18142;SDS011;9197;50.930;3.140;2022-11-15T06:39:04;12.53;;;9.53;;
18142;SDS011;9197;50.930;3.140;2022-11-15T06:41:42;11.93;;;10.63;;
18142;SDS011;9197;50.930;3.140;2022-11-15T06:44:22;17.13;;;10.60;;
18142;SDS011;9197;50.930;3.140;2022-11-15T06:46:57;13.67;;;10.73;;
18142;SDS011;9197;50.930;3.140;2022-11-15T06:49:36;13.23;;;11.83;;
18142;SDS011;9197;50.930;3.140;2022-11-15T06:52:23;14.23;;;11.63;;
18142;SDS011;9197;50.930;3.140;2022-11-15T06:55:04;15.03;;;11.87;;
18142;SDS011;9197;50.930;3.140;2022-11-15T07:04:02;14.33;;;12.57;;
18142;SDS011;9197;50.930;3.140;2022-11-15T07:06:54;18.27;;;13.27;;
18142;SDS011;9197;50.930;3.140;2022-11-15T07:09:28;21.03;;;12.93;;
18142;SDS011;9197;50.930;3.140;2022-11-15T07:11:59;14.97;;;11.77;;
18142;SDS011;9197;50.930;3.140;2022-11-15T07:14:29;18.00;;;13.87;;
18142;SDS011;9197;50.930;3.140;2022-11-15T07:16:58;16.60;;;14.87;;
18142;SDS011;9197;50.930;3.140;2022-11-15T07:19:43;18.70;;;14.07;;
18142;SDS011;9197;50.930;3.140;2022-11-15T07:22:10;16.50;;;12.93;;
18142;SDS011;9197;50.930;3.140;2022-11-15T07:24:37;18.20;;;13.60;;
18142;SDS011;9197;50.930;3.140;2022-11-15T07:27:04;21.00;;;13.77;;
18142;SDS011;9197;50.930;3.140;2022-11-15T07:29:32;19.87;;;14.13;;
18142;SDS011;9197;50.930;3.140;2022-11-15T07:31:59;16.87;;;13.23;;
18142;SDS011;9197;50.930;3.140;2022-11-15T07:34:26;16.07;;;13.00;;
18142;SDS011;9197;50.930;3.140;2022-11-15T07:36:55;15.53;;;12.13;;
18142;SDS011;9197;50.930;3.140;2022-11-15T07:39:22;16.13;;;12.40;;
18142;SDS011;9197;50.930;3.140;2022-11-15T07:41:49;15.47;;;11.43;;
18142;SDS011;9197;50.930;3.140;2022-11-15T07:44:36;17.67;;;12.37;;
18142;SDS011;9197;50.930;3.140;2022-11-15T07:47:03;18.13;;;10.97;;
18142;SDS011;9197;50.930;3.140;2022-11-15T07:49:30;12.80;;;9.17;;
18142;SDS011;9197;50.930;3.140;2022-11-15T07:51:59;14.03;;;10.27;;
18142;SDS011;9197;50.930;3.140;2022-11-15T07:54:26;12.47;;;9.93;;
18142;SDS011;9197;50.930;3.140;2022-11-15T07:56:53;18.23;;;9.43;;
18142;SDS011;9197;50.930;3.140;2022-11-15T07:59:20;12.87;;;8.50;;
18142;SDS011;9197;50.930;3.140;2022-11-15T08:01:48;11.10;;;8.00;;
18142;SDS011;9197;50.930;3.140;2022-11-15T08:04:15;10.50;;;7.17;;
18142;SDS011;9197;50.930;3.140;2022-11-15T08:06:42;10.40;;;7.50;;
18142;SDS011;9197;50.930;3.140;2022-11-15T08:09:10;10.90;;;7.30;;
18142;SDS011;9197;50.930;3.140;2022-11-15T08:11:38;9.20;;;6.17;;
18142;SDS011;9197;50.930;3.140;2022-11-15T08:14:05;6.53;;;5.60;;
18142;SDS011;9197;50.930;3.140;2022-11-15T08:16:32;8.73;;;5.13;;
18142;SDS011;9197;50.930;3.140;2022-11-15T08:18:59;9.70;;;5.10;;
18142;SDS011;9197;50.930;3.140;2022-11-15T08:21:27;8.27;;;4.57;;
18142;SDS011;9197;50.930;3.140;2022-11-15T08:23:54;7.53;;;4.33;;
18142;SDS011;9197;50.930;3.140;2022-11-15T08:26:23;7.37;;;4.10;;
18142;SDS011;9197;50.930;3.140;2022-11-15T08:28:54;6.03;;;3.63;;
18142;SDS011;9197;50.930;3.140;2022-11-15T08:31:21;4.70;;;3.40;;
18142;SDS011;9197;50.930;3.140;2022-11-15T08:33:48;5.17;;;3.13;;
18142;SDS011;9197;50.930;3.140;2022-11-15T08:36:15;6.03;;;2.63;;
18142;SDS011;9197;50.930;3.140;2022-11-15T08:38:43;3.30;;;3.00;;
18142;SDS011;9197;50.930;3.140;2022-11-15T08:41:11;7.60;;;3.03;;
18142;SDS011;9197;50.930;3.140;2022-11-15T08:43:40;6.90;;;2.70;;
18142;SDS011;9197;50.930;3.140;2022-11-15T08:46:08;3.10;;;2.80;;
18142;SDS011;9197;50.930;3.140;2022-11-15T08:48:35;4.20;;;2.80;;
18142;SDS011;9197;50.930;3.140;2022-11-15T08:51:03;5.77;;;2.50;;
18142;SDS011;9197;50.930;3.140;2022-11-15T08:53:30;4.27;;;2.10;;
18142;SDS011;9197;50.930;3.140;2022-11-15T08:55:57;4.90;;;2.30;;
18142;SDS011;9197;50.930;3.140;2022-11-15T08:58:24;4.03;;;2.20;;
18142;SDS011;9197;50.930;3.140;2022-11-15T09:00:53;7.50;;;2.27;;
18142;SDS011;9197;50.930;3.140;2022-11-15T09:03:20;7.43;;;1.90;;
18142;SDS011;9197;50.930;3.140;2022-11-15T09:05:47;3.47;;;2.00;;
18142;SDS011;9197;50.930;3.140;2022-11-15T09:08:14;4.30;;;2.03;;
18142;SDS011;9197;50.930;3.140;2022-11-15T09:10:41;5.40;;;1.80;;
18142;SDS011;9197;50.930;3.140;2022-11-15T09:13:09;5.30;;;1.73;;
18142;SDS011;9197;50.930;3.140;2022-11-15T09:15:36;6.03;;;3.00;;
18142;SDS011;9197;50.930;3.140;2022-11-15T09:18:04;9.37;;;2.40;;
18142;SDS011;9197;50.930;3.140;2022-11-15T09:20:31;5.37;;;2.17;;
18142;SDS011;9197;50.930;3.140;2022-11-15T09:22:59;6.03;;;2.17;;
18142;SDS011;9197;50.930;3.140;2022-11-15T09:25:27;2.90;;;1.83;;
18142;SDS011;9197;50.930;3.140;2022-11-15T09:27:54;3.47;;;1.80;;
18142;SDS011;9197;50.930;3.140;2022-11-15T09:30:22;3.87;;;1.83;;
18142;SDS011;9197;50.930;3.140;2022-11-15T09:32:49;3.93;;;1.77;;
18142;SDS011;9197;50.930;3.140;2022-11-15T09:35:18;5.43;;;2.07;;
18142;SDS011;9197;50.930;3.140;2022-11-15T09:37:45;4.20;;;1.70;;
18142;SDS011;9197;50.930;3.140;2022-11-15T09:40:12;4.80;;;1.50;;
18142;SDS011;9197;50.930;3.140;2022-11-15T09:42:46;4.97;;;1.60;;
18142;SDS011;9197;50.930;3.140;2022-11-15T09:45:18;5.53;;;1.90;;
18142;SDS011;9197;50.930;3.140;2022-11-15T09:47:57;8.03;;;2.30;;
18142;SDS011;9197;50.930;3.140;2022-11-15T09:50:31;8.63;;;1.93;;
18142;SDS011;9197;50.930;3.140;2022-11-15T09:52:58;4.87;;;1.60;;
18142;SDS011;9197;50.930;3.140;2022-11-15T09:55:28;6.13;;;1.70;;
18142;SDS011;9197;50.930;3.140;2022-11-15T09:58:02;7.57;;;2.33;;
18142;SDS011;9197;50.930;3.140;2022-11-15T10:00:31;4.23;;;1.63;;
18142;SDS011;9197;50.930;3.140;2022-11-15T10:03:11;4.37;;;2.00;;
18142;SDS011;9197;50.930;3.140;2022-11-15T10:05:40;9.33;;;2.03;;
18142;SDS011;9197;50.930;3.140;2022-11-15T10:08:12;7.40;;;2.07;;
18142;SDS011;9197;50.930;3.140;2022-11-15T10:10:41;6.87;;;2.13;;
18142;SDS011;9197;50.930;3.140;2022-11-15T10:13:09;3.00;;;1.73;;
18142;SDS011;9197;50.930;3.140;2022-11-15T10:15:41;3.07;;;1.70;;
18142;SDS011;9197;50.930;3.140;2022-11-15T10:18:16;4.03;;;1.77;;
18142;SDS011;9197;50.930;3.140;2022-11-15T10:20:50;6.20;;;1.90;;
18142;SDS011;9197;50.930;3.140;2022-11-15T10:23:18;4.83;;;1.33;;
18142;SDS011;9197;50.930;3.140;2022-11-15T10:25:46;6.17;;;2.10;;
18142;SDS011;9197;50.930;3.140;2022-11-15T10:28:21;3.80;;;1.20;;
18142;SDS011;9197;50.930;3.140;2022-11-15T10:30:49;5.57;;;1.83;;
18142;SDS011;9197;50.930;3.140;2022-11-15T10:33:19;5.13;;;1.60;;
18142;SDS011;9197;50.930;3.140;2022-11-15T10:35:49;3.37;;;1.37;;
18142;SDS011;9197;50.930;3.140;2022-11-15T10:38:47;7.57;;;2.20;;
18142;SDS011;9197;50.930;3.140;2022-11-15T10:41:18;4.70;;;1.80;;
18142;SDS011;9197;50.930;3.140;2022-11-15T10:43:46;4.50;;;1.63;;
18142;SDS011;9197;50.930;3.140;2022-11-15T10:46:27;5.23;;;2.17;;
18142;SDS011;9197;50.930;3.140;2022-11-15T10:48:57;7.43;;;1.77;;
18142;SDS011;9197;50.930;3.140;2022-11-15T10:51:41;7.60;;;1.97;;
18142;SDS011;9197;50.930;3.140;2022-11-15T10:54:09;8.43;;;1.60;;
18142;SDS011;9197;50.930;3.140;2022-11-15T10:56:38;4.50;;;2.00;;
18142;SDS011;9197;50.930;3.140;2022-11-15T10:59:12;4.53;;;1.70;;
18142;SDS011;9197;50.930;3.140;2022-11-15T11:01:45;5.10;;;1.80;;
18142;SDS011;9197;50.930;3.140;2022-11-15T11:04:12;9.77;;;3.10;;
18142;SDS011;9197;50.930;3.140;2022-11-15T11:06:47;5.60;;;2.00;;
18142;SDS011;9197;50.930;3.140;2022-11-15T11:09:29;7.10;;;1.70;;
18142;SDS011;9197;50.930;3.140;2022-11-15T11:11:58;5.97;;;1.67;;
18142;SDS011;9197;50.930;3.140;2022-11-15T11:14:26;6.30;;;1.80;;
18142;SDS011;9197;50.930;3.140;2022-11-15T11:16:57;5.00;;;1.90;;
18142;SDS011;9197;50.930;3.140;2022-11-15T11:19:39;4.53;;;1.60;;
18142;SDS011;9197;50.930;3.140;2022-11-15T11:22:11;4.83;;;1.60;;
18142;SDS011;9197;50.930;3.140;2022-11-15T11:24:43;5.90;;;1.50;;
18142;SDS011;9197;50.930;3.140;2022-11-15T11:27:16;3.30;;;1.27;;
18142;SDS011;9197;50.930;3.140;2022-11-15T11:29:49;4.83;;;1.80;;
18142;SDS011;9197;50.930;3.140;2022-11-15T11:32:26;7.57;;;1.90;;
18142;SDS011;9197;50.930;3.140;2022-11-15T11:34:56;5.10;;;1.67;;
18142;SDS011;9197;50.930;3.140;2022-11-15T11:37:28;8.83;;;1.90;;
18142;SDS011;9197;50.930;3.140;2022-11-15T11:40:00;5.93;;;2.10;;
18142;SDS011;9197;50.930;3.140;2022-11-15T11:42:37;4.23;;;1.60;;
18142;SDS011;9197;50.930;3.140;2022-11-15T11:45:10;9.27;;;2.70;;
18142;SDS011;9197;50.930;3.140;2022-11-15T11:47:44;4.63;;;1.80;;
18142;SDS011;9197;50.930;3.140;2022-11-15T11:50:13;6.67;;;2.27;;
18142;SDS011;9197;50.930;3.140;2022-11-15T11:52:44;7.53;;;2.00;;
18142;SDS011;9197;50.930;3.140;2022-11-15T11:55:18;4.70;;;1.87;;
18142;SDS011;9197;50.930;3.140;2022-11-15T11:57:48;5.80;;;2.00;;
18142;SDS011;9197;50.930;3.140;2022-11-15T12:00:18;3.83;;;2.00;;
18142;SDS011;9197;50.930;3.140;2022-11-15T12:02:47;8.83;;;1.97;;
18142;SDS011;9197;50.930;3.140;2022-11-15T12:05:18;2.27;;;1.70;;
18142;SDS011;9197;50.930;3.140;2022-11-15T12:07:50;3.23;;;2.00;;
18142;SDS011;9197;50.930;3.140;2022-11-15T12:10:21;1.70;;;1.40;;
18142;SDS011;9197;50.930;3.140;2022-11-15T12:12:56;8.10;;;2.20;;
18142;SDS011;9197;50.930;3.140;2022-11-15T12:15:26;2.33;;;1.43;;
18142;SDS011;9197;50.930;3.140;2022-11-15T12:17:54;4.57;;;2.03;;
18142;SDS011;9197;50.930;3.140;2022-11-15T12:20:22;5.20;;;2.27;;
18142;SDS011;9197;50.930;3.140;2022-11-15T12:22:54;3.83;;;3.17;;
18142;SDS011;9197;50.930;3.140;2022-11-15T12:25:25;4.27;;;1.77;;
18142;SDS011;9197;50.930;3.140;2022-11-15T12:27:56;3.33;;;1.97;;
18142;SDS011;9197;50.930;3.140;2022-11-15T12:30:24;4.60;;;2.00;;
18142;SDS011;9197;50.930;3.140;2022-11-15T12:32:53;3.73;;;1.90;;
18142;SDS011;9197;50.930;3.140;2022-11-15T12:35:24;5.83;;;2.57;;
18142;SDS011;9197;50.930;3.140;2022-11-15T12:37:52;3.87;;;2.13;;
18142;SDS011;9197;50.930;3.140;2022-11-15T12:40:24;3.20;;;2.07;;
18142;SDS011;9197;50.930;3.140;2022-11-15T12:42:58;6.03;;;2.70;;
18142;SDS011;9197;50.930;3.140;2022-11-15T12:45:27;3.27;;;2.37;;
18142;SDS011;9197;50.930;3.140;2022-11-15T12:47:56;4.63;;;2.60;;
18142;SDS011;9197;50.930;3.140;2022-11-15T12:50:54;6.97;;;2.87;;
18142;SDS011;9197;50.930;3.140;2022-11-15T12:53:26;5.23;;;2.43;;
18142;SDS011;9197;50.930;3.140;2022-11-15T12:58:47;5.33;;;2.47;;
18142;SDS011;9197;50.930;3.140;2022-11-15T13:04:11;6.93;;;3.43;;
18142;SDS011;9197;50.930;3.140;2022-11-15T13:06:40;4.60;;;3.13;;
18142;SDS011;9197;50.930;3.140;2022-11-15T13:11:53;6.67;;;3.10;;
18142;SDS011;9197;50.930;3.140;2022-11-15T13:14:44;7.97;;;3.63;;
18142;SDS011;9197;50.930;3.140;2022-11-15T13:17:25;3.53;;;2.77;;
18142;SDS011;9197;50.930;3.140;2022-11-15T13:19:55;4.23;;;2.53;;
18142;SDS011;9197;50.930;3.140;2022-11-15T13:22:24;10.17;;;3.47;;
18142;SDS011;9197;50.930;3.140;2022-11-15T13:28:09;3.90;;;2.10;;
18142;SDS011;9197;50.930;3.140;2022-11-15T13:30:39;5.33;;;2.80;;
18142;SDS011;9197;50.930;3.140;2022-11-15T13:33:07;3.30;;;3.00;;
18142;SDS011;9197;50.930;3.140;2022-11-15T13:35:36;3.53;;;2.30;;
18142;SDS011;9197;50.930;3.140;2022-11-15T13:38:05;3.83;;;2.60;;
18142;SDS011;9197;50.930;3.140;2022-11-15T13:40:34;5.80;;;3.07;;
18142;SDS011;9197;50.930;3.140;2022-11-15T13:43:13;6.43;;;3.37;;
18142;SDS011;9197;50.930;3.140;2022-11-15T13:45:43;4.70;;;2.73;;
18142;SDS011;9197;50.930;3.140;2022-11-15T13:48:10;4.40;;;2.53;;
18142;SDS011;9197;50.930;3.140;2022-11-15T13:50:38;3.80;;;2.67;;
18142;SDS011;9197;50.930;3.140;2022-11-15T13:53:06;7.07;;;3.50;;
18142;SDS011;9197;50.930;3.140;2022-11-15T13:55:33;5.60;;;2.63;;
18142;SDS011;9197;50.930;3.140;2022-11-15T13:58:01;4.07;;;2.87;;
18142;SDS011;9197;50.930;3.140;2022-11-15T14:00:32;5.07;;;2.90;;
18142;SDS011;9197;50.930;3.140;2022-11-15T14:03:18;6.80;;;3.40;;
18142;SDS011;9197;50.930;3.140;2022-11-15T14:05:46;3.67;;;2.70;;
18142;SDS011;9197;50.930;3.140;2022-11-15T14:08:26;4.90;;;3.00;;
18142;SDS011;9197;50.930;3.140;2022-11-15T14:11:06;6.23;;;3.50;;
18142;SDS011;9197;50.930;3.140;2022-11-15T14:13:33;5.03;;;2.87;;
18142;SDS011;9197;50.930;3.140;2022-11-15T14:16:14;4.10;;;3.80;;
18142;SDS011;9197;50.930;3.140;2022-11-15T14:18:44;4.43;;;3.03;;
18142;SDS011;9197;50.930;3.140;2022-11-15T14:21:11;4.50;;;3.63;;
18142;SDS011;9197;50.930;3.140;2022-11-15T14:23:38;7.27;;;5.27;;
18142;SDS011;9197;50.930;3.140;2022-11-15T14:26:05;9.63;;;7.90;;
18142;SDS011;9197;50.930;3.140;2022-11-15T14:28:33;6.63;;;5.83;;
18142;SDS011;9197;50.930;3.140;2022-11-15T14:31:06;6.53;;;5.90;;
18142;SDS011;9197;50.930;3.140;2022-11-15T14:33:34;10.00;;;5.97;;
18142;SDS011;9197;50.930;3.140;2022-11-15T14:36:04;8.90;;;8.10;;
18142;SDS011;9197;50.930;3.140;2022-11-15T14:38:32;7.23;;;6.53;;
18142;SDS011;9197;50.930;3.140;2022-11-15T14:40:59;4.93;;;4.53;;
18142;SDS011;9197;50.930;3.140;2022-11-15T14:43:26;8.47;;;4.67;;
18142;SDS011;9197;50.930;3.140;2022-11-15T14:45:54;7.17;;;4.20;;
18142;SDS011;9197;50.930;3.140;2022-11-15T14:48:21;5.57;;;4.33;;
18142;SDS011;9197;50.930;3.140;2022-11-15T14:50:48;6.97;;;5.47;;
18142;SDS011;9197;50.930;3.140;2022-11-15T14:53:17;8.37;;;4.77;;
18142;SDS011;9197;50.930;3.140;2022-11-15T14:55:44;5.77;;;5.07;;
18142;SDS011;9197;50.930;3.140;2022-11-15T14:58:12;9.67;;;6.03;;
18142;SDS011;9197;50.930;3.140;2022-11-15T15:00:40;5.87;;;5.37;;
18142;SDS011;9197;50.930;3.140;2022-11-15T15:03:07;7.13;;;5.83;;
18142;SDS011;9197;50.930;3.140;2022-11-15T15:05:35;8.83;;;5.20;;
18142;SDS011;9197;50.930;3.140;2022-11-15T15:08:03;5.90;;;5.30;;
18142;SDS011;9197;50.930;3.140;2022-11-15T15:10:32;8.80;;;7.97;;
18142;SDS011;9197;50.930;3.140;2022-11-15T15:13:00;11.70;;;7.47;;
18142;SDS011;9197;50.930;3.140;2022-11-15T15:15:31;6.50;;;5.87;;
18142;SDS011;9197;50.930;3.140;2022-11-15T15:17:58;8.60;;;7.70;;
18142;SDS011;9197;50.930;3.140;2022-11-15T15:20:25;10.63;;;9.63;;
18142;SDS011;9197;50.930;3.140;2022-11-15T15:22:53;19.87;;;18.13;;
18142;SDS011;9197;50.930;3.140;2022-11-15T15:25:22;9.20;;;7.57;;
18142;SDS011;9197;50.930;3.140;2022-11-15T15:27:52;9.17;;;8.10;;
18142;SDS011;9197;50.930;3.140;2022-11-15T15:30:19;9.87;;;8.97;;
18142;SDS011;9197;50.930;3.140;2022-11-15T15:32:46;8.43;;;7.53;;
18142;SDS011;9197;50.930;3.140;2022-11-15T15:35:14;11.03;;;6.47;;
18142;SDS011;9197;50.930;3.140;2022-11-15T15:37:41;6.87;;;6.17;;
18142;SDS011;9197;50.930;3.140;2022-11-15T15:40:10;8.70;;;7.43;;
18142;SDS011;9197;50.930;3.140;2022-11-15T15:42:39;7.70;;;6.60;;
18142;SDS011;9197;50.930;3.140;2022-11-15T15:45:09;15.47;;;14.03;;
18142;SDS011;9197;50.930;3.140;2022-11-15T15:47:36;13.07;;;12.07;;